Time;durP1;ratioP1;P1;durP2;ratioP2;P2;SDS_P1;SDS_P2;PMS_P1;PMS_P2;Temp;Humidity;BMP_temperature;BMP_pressure;BME280_temperature;BME280_humidity;BME280_pressure;Samples;Min_cycle;Max_cycle;Signal;HPM_P1;HPM_P2
2023/01/01 00:00:13;;;;;;;71.07;42.37;;;16.10;85.10;;;16.58;50.36;98950.59;4962338;28;123799;-84
2023/01/01 00:02:40;;;;;;;64.53;38.67;;;16.10;85.10;;;16.54;50.22;98944.06;4967072;28;117146;-74
2023/01/01 00:05:07;;;;;;;58.60;36.37;;;16.20;85.20;;;16.52;50.20;98957.53;4960913;28;114979;-74
2023/01/01 00:07:33;;;;;;;56.97;34.17;;;16.10;85.20;;;16.51;50.55;98953.13;4963992;28;124152;-73
2023/01/01 00:12:46;;;;;;;50.27;29.20;;;16.00;85.30;;;16.46;50.44;98958.94;4970508;28;114806;-77
2023/01/01 00:15:13;;;;;;;37.63;25.53;;;16.00;85.30;;;16.44;50.67;98966.81;4958527;28;114145;-76
2023/01/01 00:17:40;;;;;;;43.33;27.37;;;16.00;85.40;;;16.44;50.64;98969.63;4961359;28;124109;-76
2023/01/01 00:20:07;;;;;;;39.60;25.40;;;16.00;85.50;;;16.44;50.64;98961.25;4968988;28;124320;-76
2023/01/01 00:22:33;;;;;;;42.60;25.57;;;16.00;85.50;;;16.43;50.53;98974.38;4967677;28;114419;-76
2023/01/01 00:25:03;;;;;;;38.17;22.70;;;16.00;85.50;;;16.42;50.64;98961.63;4964117;28;113758;-76
2023/01/01 00:27:30;;;;;;;27.00;19.50;;;16.00;85.50;;;16.42;50.69;98960.81;4965815;28;123751;-77
2023/01/01 00:29:56;;;;;;;30.87;18.77;;;16.00;85.60;;;16.40;50.79;98960.34;4968234;28;123833;-76
2023/01/01 00:32:23;;;;;;;22.87;14.90;;;15.90;85.50;;;16.40;50.63;98961.16;4964549;28;114169;-75
2023/01/01 00:34:50;;;;;;;28.10;15.57;;;15.90;85.50;;;16.40;50.66;98952.78;4964945;28;113823;-76
2023/01/01 00:37:17;;;;;;;26.67;14.53;;;15.90;86.20;;;16.40;50.66;98955.56;4964190;28;124127;-79
2023/01/01 00:39:44;;;;;;;19.73;13.17;;;15.90;85.60;;;16.41;50.72;98956.38;4958393;28;124019;-77
2023/01/01 00:42:10;;;;;;;20.40;12.33;;;15.90;85.60;;;16.40;50.75;98958.34;4950733;28;114061;-76
2023/01/01 00:44:37;;;;;;;17.13;11.00;;;15.90;85.60;;;16.40;50.80;98963.13;4949445;28;114188;-76
2023/01/01 00:47:03;;;;;;;17.13;9.00;;;15.90;85.60;;;16.39;50.76;98958.69;4949566;28;124240;-76
2023/01/01 00:49:30;;;;;;;14.63;7.50;;;15.90;85.60;;;16.38;50.73;98960.66;4966029;28;123896;-75
2023/01/01 00:51:56;;;;;;;9.30;7.00;;;16.00;85.60;;;16.39;50.71;98964.25;4946710;28;115138;-76
2023/01/01 00:54:23;;;;;;;10.10;6.90;;;15.90;85.50;;;16.41;50.76;98959.16;4950251;28;114890;-76
2023/01/01 00:56:49;;;;;;;11.30;7.03;;;16.00;85.60;;;16.43;50.39;98954.06;4951818;28;123291;-75
2023/01/01 00:59:16;;;;;;;10.90;7.10;;;16.00;85.60;;;16.44;50.61;98955.66;4955572;28;124077;-77
2023/01/01 01:01:42;;;;;;;10.97;6.73;;;16.00;85.50;;;16.45;50.36;98957.31;4986273;28;113575;-75
2023/01/01 01:04:09;;;;;;;9.77;6.60;;;16.00;85.50;;;16.47;50.58;98954.97;4967604;28;114056;-76
2023/01/01 01:06:35;;;;;;;11.00;6.53;;;16.00;85.40;;;16.46;50.46;98948.59;4967599;28;124633;-77
2023/01/01 01:09:03;;;;;;;12.93;7.27;;;16.00;85.40;;;16.48;50.42;98939.88;4964552;28;123754;-75
2023/01/01 01:11:30;;;;;;;8.50;5.83;;;16.00;85.40;;;16.50;50.38;98938.38;4968545;28;114270;-75
2023/01/01 01:13:56;;;;;;;9.77;6.33;;;16.00;85.30;;;16.52;50.40;98941.63;4967793;28;114043;-76
2023/01/01 01:16:24;;;;;;;9.60;6.70;;;16.10;85.40;;;16.53;50.31;98934.88;5001491;28;123663;-78
2023/01/01 01:18:54;;;;;;;10.20;6.30;;;16.10;85.40;;;16.55;50.37;98940.94;4967612;28;123922;-75
2023/01/01 01:21:23;;;;;;;10.63;7.27;;;16.10;85.30;;;16.54;50.21;98947.66;4969570;28;114137;-78
2023/01/01 01:23:50;;;;;;;16.07;8.37;;;16.10;85.20;;;16.56;50.12;98944.53;4968383;28;114143;-76
2023/01/01 01:26:23;;;;;;;10.60;7.97;;;16.10;85.20;;;16.55;50.17;98951.28;4969844;28;125457;-76
2023/01/01 01:28:51;;;;;;;14.93;8.50;;;16.10;85.20;;;16.52;50.08;98957.53;4967554;28;123850;-76
2023/01/01 01:31:20;;;;;;;10.73;6.83;;;16.10;85.50;;;16.49;50.18;98952.66;4968031;28;114200;-77
2023/01/01 01:33:48;;;;;;;12.80;7.80;;;16.10;85.20;;;16.47;50.27;98955.81;4966062;28;113552;-80
2023/01/01 01:36:16;;;;;;;11.10;7.43;;;16.00;85.10;;;16.46;50.47;98953.34;4962961;28;123952;-75
2023/01/01 01:38:43;;;;;;;9.03;6.10;;;16.00;85.10;;;16.46;50.44;98958.94;4985890;28;123959;-76
2023/01/01 01:41:14;;;;;;;9.20;6.43;;;16.10;85.30;;;16.48;50.41;98959.41;4968207;28;116008;-75
2023/01/01 01:43:40;;;;;;;11.00;6.53;;;16.10;85.30;;;16.48;50.29;98962.19;4971047;28;114622;-79
2023/01/01 01:46:14;;;;;;;9.53;6.10;;;16.00;85.20;;;16.48;50.32;98951.84;4966645;28;124240;-78
2023/01/01 01:48:47;;;;;;;9.30;6.07;;;16.00;85.20;;;16.49;50.31;98961.84;4967198;28;124030;-74
2023/01/01 01:51:18;;;;;;;8.50;6.53;;;16.00;85.20;;;16.48;50.39;98971.38;4965990;28;114283;-76
2023/01/01 01:53:50;;;;;;;9.23;6.60;;;16.00;85.20;;;16.46;50.45;98970.09;4971928;28;114069;-76
2023/01/01 01:56:28;;;;;;;12.33;6.80;;;16.00;85.20;;;16.45;50.58;98965.69;4950697;28;123496;-76
2023/01/01 01:58:54;;;;;;;12.10;7.40;;;16.00;85.30;;;16.44;50.34;98961.25;4965694;28;125727;-75
2023/01/01 02:01:21;;;;;;;8.80;6.27;;;16.00;85.30;;;16.42;50.44;98955.22;4995346;28;114268;-76
2023/01/01 02:03:57;;;;;;;9.60;6.13;;;16.00;85.30;;;16.41;50.26;98956.38;4970754;28;114025;-75
2023/01/01 02:06:26;;;;;;;12.97;6.33;;;16.00;85.30;;;16.41;50.35;98961.94;4972960;28;124105;-73
2023/01/01 02:08:55;;;;;;;10.80;6.60;;;16.10;85.40;;;16.41;50.35;98956.38;4972683;28;124348;-73
2023/01/01 02:11:22;;;;;;;9.13;5.83;;;15.90;85.20;;;16.41;50.38;98959.16;4973245;28;114081;-76
2023/01/01 02:13:50;;;;;;;8.40;5.80;;;16.00;85.30;;;16.41;50.29;98956.38;4976623;28;114447;-74
2023/01/01 02:16:24;;;;;;;8.30;6.00;;;16.00;85.30;;;16.42;50.21;98952.44;4972509;28;126702;-76
2023/01/01 02:19:11;;;;;;;8.03;5.00;;;16.00;85.30;;;16.41;50.32;98956.38;4971197;28;123834;-74
2023/01/01 02:22:00;;;;;;;9.03;5.33;;;16.00;85.30;;;16.40;50.14;98966.72;4955656;28;113345;-76
2023/01/01 02:24:49;;;;;;;7.97;4.70;;;15.90;85.10;;;16.38;50.27;98968.22;4974449;28;114130;-75
2023/01/01 02:27:20;;;;;;;6.23;4.57;;;15.90;85.10;;;16.38;50.18;98968.22;4975010;28;123734;-76
2023/01/01 02:30:04;;;;;;;7.97;5.40;;;16.00;85.20;;;16.33;50.08;98972.03;4973743;28;123680;-75
2023/01/01 02:32:43;;;;;;;8.80;5.83;;;15.90;85.00;;;16.33;50.14;98975.69;4968761;28;115161;-75
2023/01/01 02:35:37;;;;;;;10.20;5.43;;;15.90;85.00;;;16.33;50.27;98955.31;4974506;28;116173;-76
2023/01/01 02:38:31;;;;;;;7.20;5.07;;;15.90;85.00;;;16.32;50.31;98954.50;4965101;28;124200;-76
2023/01/01 02:41:06;;;;;;;9.27;5.13;;;15.90;85.00;;;16.35;50.39;98959.38;4968215;28;123551;-76
2023/01/01 02:43:33;;;;;;;10.33;5.50;;;15.90;85.00;;;16.35;50.18;98953.81;4970069;28;113926;-76
2023/01/01 02:46:05;;;;;;;9.53;6.10;;;16.50;85.60;;;16.38;50.01;98955.09;4963905;28;114453;-75
2023/01/01 02:48:50;;;;;;;9.83;5.23;;;15.90;85.00;;;16.40;50.06;98961.16;4965735;28;124362;-75
2023/01/01 02:51:50;;;;;;;9.17;5.50;;;15.90;85.00;;;16.41;50.18;98968.34;5005697;28;124631;-75
2023/01/01 02:54:17;;;;;;;10.90;5.53;;;15.90;84.90;;;16.43;50.03;98965.22;4941083;28;113429;-75
2023/01/01 02:56:53;;;;;;;6.70;4.60;;;16.00;85.00;;;16.47;50.13;98971.72;4981362;28;113622;-75
2023/01/01 03:03:13;;;;;;;7.40;5.07;;;16.00;85.00;;;16.46;49.96;98975.66;4973891;28;124354;-74
2023/01/01 03:09:06;;;;;;;6.63;4.77;;;16.00;84.90;;;16.47;49.81;98977.28;4969967;28;114523;-74
2023/01/01 03:12:10;;;;;;;10.10;4.90;;;16.00;84.80;;;16.44;49.84;98966.81;4973115;28;124381;-75
2023/01/01 03:14:57;;;;;;;8.63;4.47;;;16.00;84.80;;;16.45;49.67;98962.91;4970726;28;124337;-75
2023/01/01 03:17:59;;;;;;;9.40;4.90;;;16.00;84.70;;;16.43;49.67;98960.44;4970005;28;115208;-77
2023/01/01 03:20:31;;;;;;;9.03;4.60;;;16.00;84.70;;;16.44;49.75;98966.81;4969301;28;114309;-75
2023/01/01 03:23:06;;;;;;;11.00;4.83;;;16.00;84.70;;;16.45;49.71;98988.00;4967911;28;124006;-75
2023/01/01 03:25:44;;;;;;;6.87;5.43;;;16.00;84.60;;;16.43;49.76;98998.69;4969635;28;123673;-75
2023/01/01 03:28:18;;;;;;;8.63;5.90;;;16.00;84.60;;;16.42;49.74;98988.69;4967839;28;115242;-77
2023/01/01 03:30:46;;;;;;;10.20;5.30;;;16.00;84.60;;;16.42;49.67;98997.06;4969614;28;114993;-78
2023/01/01 03:33:23;;;;;;;9.30;4.70;;;15.90;84.50;;;16.42;49.27;99002.63;4920083;28;123944;-76
2023/01/01 03:36:03;;;;;;;8.20;4.90;;;15.90;84.50;;;16.42;49.77;99005.44;4967223;28;122554;-76
2023/01/01 03:38:34;;;;;;;10.90;5.60;;;15.90;84.50;;;16.42;49.67;99019.38;4950964;28;113603;-76
2023/01/01 03:41:10;;;;;;;7.90;5.23;;;15.90;84.50;;;16.41;49.73;99023.31;4967969;28;112856;-76
2023/01/01 03:43:53;;;;;;;9.50;5.53;;;15.90;84.40;;;16.39;49.55;99031.19;4962724;28;123996;-77
2023/01/01 03:46:25;;;;;;;8.73;4.77;;;15.90;84.40;;;16.36;49.67;99038.28;4955720;28;123522;-75
2023/01/01 03:48:56;;;;;;;7.10;4.87;;;17.00;85.50;;;16.33;49.63;99028.66;4970569;28;113941;-76
2023/01/01 03:51:31;;;;;;;8.73;5.20;;;15.90;84.50;;;16.32;49.56;99031.78;4975542;28;114322;-75
2023/01/01 03:54:12;;;;;;;9.33;5.13;;;15.80;84.50;;;16.31;49.92;99028.19;4968138;28;124438;-76
2023/01/01 03:56:47;;;;;;;6.13;4.10;;;15.80;84.50;;;16.31;49.81;99036.53;4969494;28;123834;-76
2023/01/01 03:59:40;;;;;;;5.90;4.17;;;15.90;84.60;;;16.29;50.01;99027.69;4964771;28;114051;-75
2023/01/01 04:02:09;;;;;;;6.10;3.67;;;15.90;84.60;;;16.29;50.07;99030.50;4993662;28;113143;-76
2023/01/01 04:04:37;;;;;;;6.70;3.70;;;15.80;84.50;;;16.29;49.98;99027.69;4969039;28;124080;-75
2023/01/01 04:07:03;;;;;;;6.50;4.70;;;15.80;84.60;;;16.29;49.94;99026.88;4967626;28;124336;-76
2023/01/01 04:09:34;;;;;;;7.13;3.40;;;15.80;84.60;;;16.29;49.92;99022.13;4964277;28;114588;-76
2023/01/01 04:12:00;;;;;;;6.90;4.40;;;15.80;84.60;;;16.28;49.87;99009.34;4968166;28;114106;-76
2023/01/01 04:14:30;;;;;;;6.43;4.90;;;16.10;84.90;;;16.26;49.83;99020.03;4969174;28;124032;-76
2023/01/01 04:16:57;;;;;;;5.37;3.90;;;15.80;84.60;;;16.26;50.01;99025.59;4968790;28;123995;-76
2023/01/01 04:19:25;;;;;;;5.60;4.10;;;15.80;84.60;;;16.24;50.13;99019.56;4969166;28;115611;-82
2023/01/01 04:21:51;;;;;;;7.40;5.10;;;15.70;84.60;;;16.21;50.06;99019.44;4968608;28;114695;-82
2023/01/01 04:24:18;;;;;;;8.77;4.23;;;15.70;84.60;;;16.18;50.24;99020.94;4968681;28;124519;-79
2023/01/01 04:26:44;;;;;;;6.20;3.70;;;15.70;84.70;;;16.17;49.98;99018.47;4967442;28;124131;-79
2023/01/01 04:29:11;;;;;;;5.67;4.00;;;15.70;84.80;;;16.14;50.15;99006.03;4968335;28;114138;-77
2023/01/01 04:31:37;;;;;;;8.07;4.90;;;15.70;84.80;;;16.12;50.40;99016.75;4969143;28;113340;-76
2023/01/01 04:34:04;;;;;;;6.23;3.90;;;15.70;84.90;;;16.10;50.35;99011.50;4968413;28;124039;-76
2023/01/01 04:36:30;;;;;;;9.60;4.43;;;15.70;84.90;;;16.07;50.15;99009.41;4972229;28;124129;-76
2023/01/01 04:38:57;;;;;;;5.80;3.67;;;15.60;84.90;;;16.03;50.32;99008.47;4968861;28;114594;-77
2023/01/01 04:41:23;;;;;;;5.87;4.00;;;15.30;84.60;;;16.00;50.75;99008.34;5002897;28;113499;-77
2023/01/01 04:43:50;;;;;;;7.37;4.70;;;15.50;85.00;;;15.96;50.57;99011.00;4967101;28;123848;-76
2023/01/01 04:46:19;;;;;;;5.20;4.13;;;16.00;85.50;;;15.94;50.62;99004.16;4957774;28;124245;-76
2023/01/01 04:48:46;;;;;;;5.53;3.90;;;15.50;85.20;;;15.91;50.61;99000.06;4968783;28;114352;-76
2023/01/01 04:51:14;;;;;;;5.30;4.10;;;15.50;85.30;;;15.89;50.71;99003.19;4967369;28;114084;-76
2023/01/01 04:53:41;;;;;;;6.23;3.50;;;15.40;85.30;;;15.86;50.80;99009.44;4973355;28;124514;-76
2023/01/01 04:56:13;;;;;;;4.87;3.03;;;15.40;85.40;;;15.84;50.83;99011.75;4985910;28;123083;-76
2023/01/01 04:58:41;;;;;;;6.00;3.50;;;15.40;85.50;;;15.81;50.94;99017.22;4970991;28;114403;-76
2023/01/01 05:01:15;;;;;;;5.97;3.73;;;15.30;86.10;;;15.80;51.05;99024.75;4970983;28;114037;-75
2023/01/01 05:03:41;;;;;;;4.93;3.60;;;15.30;85.60;;;15.78;51.07;99013.13;4966526;28;124071;-78
2023/01/01 05:06:11;;;;;;;4.70;3.60;;;15.30;85.60;;;15.75;51.02;99024.16;4970431;28;124679;-76
2023/01/01 05:08:40;;;;;;;4.50;3.40;;;16.40;86.80;;;15.71;51.09;99018.44;4966543;28;116103;-77
2023/01/01 05:11:18;;;;;;;7.93;3.97;;;15.20;85.70;;;15.70;50.98;99030.75;4967809;28;115413;-75
2023/01/01 05:13:46;;;;;;;5.27;3.30;;;15.30;85.80;;;15.67;51.23;99026.63;4968243;28;124050;-76
2023/01/01 05:16:16;;;;;;;7.43;3.90;;;15.20;85.70;;;15.66;51.16;99032.53;4967209;28;123741;-74
2023/01/01 05:18:43;;;;;;;5.17;3.60;;;15.20;85.90;;;15.63;51.40;99030.44;4968093;28;114197;-77
2023/01/01 05:21:21;;;;;;;7.07;4.07;;;15.20;85.90;;;15.64;51.35;99029.31;4968144;28;113981;-75
2023/01/01 05:23:48;;;;;;;8.33;3.87;;;15.20;86.00;;;15.63;51.83;99045.16;4960257;28;123785;-75
2023/01/01 05:26:22;;;;;;;6.70;3.57;;;15.20;86.10;;;15.66;51.49;99046.47;4969452;28;123045;-75
2023/01/01 05:28:49;;;;;;;7.93;4.30;;;15.20;86.10;;;15.66;51.42;99043.69;4966887;28;113961;-75
2023/01/01 05:31:19;;;;;;;5.33;3.90;;;15.20;86.10;;;15.66;51.40;99043.69;4985812;28;113293;-75
2023/01/01 05:33:46;;;;;;;3.80;3.07;;;15.20;86.10;;;15.67;51.17;99042.53;4967130;28;123854;-76
2023/01/01 05:36:20;;;;;;;5.27;3.60;;;15.20;86.10;;;15.67;51.56;99034.19;4968470;28;122680;-77
2023/01/01 05:38:47;;;;;;;7.07;3.90;;;15.20;86.10;;;15.66;51.45;99041.72;4969786;28;114035;-75
2023/01/01 05:41:16;;;;;;;4.77;3.40;;;15.20;86.10;;;15.65;51.35;99039.28;4969057;28;113608;-75
2023/01/01 05:43:43;;;;;;;12.03;3.93;;;15.20;86.10;;;15.66;51.25;99052.03;4965936;28;124063;-75
2023/01/01 05:46:22;;;;;;;6.53;4.37;;;15.20;86.10;;;15.65;51.30;99056.78;4962880;28;124271;-75
2023/01/01 05:48:50;;;;;;;6.27;3.70;;;16.10;87.00;;;15.62;51.52;99051.91;4967900;28;114337;-75
2023/01/01 05:51:23;;;;;;;5.70;3.80;;;15.20;86.10;;;15.61;51.55;99046.69;4968883;28;115856;-75
2023/01/01 05:53:51;;;;;;;6.93;3.30;;;15.20;86.10;;;15.61;51.56;99055.06;4982731;28;125321;-75
2023/01/01 05:56:18;;;;;;;7.63;3.43;;;15.20;86.20;;;15.61;51.45;99060.63;4968180;28;123802;-77
2023/01/01 05:58:45;;;;;;;9.20;4.00;;;15.20;86.20;;;15.60;51.43;99054.22;4967957;28;114217;-76
2023/01/01 06:01:25;;;;;;;5.17;3.63;;;15.10;86.20;;;15.59;51.41;99058.16;4968549;28;114234;-75
2023/01/01 06:03:57;;;;;;;6.43;3.47;;;15.20;86.20;;;15.58;51.49;99055.72;4963056;28;124472;-76
2023/01/01 06:06:31;;;;;;;3.40;2.57;;;15.10;86.20;;;15.58;51.34;99064.06;4966069;28;123643;-75
2023/01/01 06:09:02;;;;;;;5.03;3.40;;;15.10;86.20;;;15.57;51.50;99059.66;4957066;28;114147;-75
2023/01/01 06:11:30;;;;;;;4.27;3.17;;;15.10;86.20;;;15.57;51.42;99062.44;4965189;28;114157;-75
2023/01/01 06:13:59;;;;;;;5.00;3.47;;;15.10;86.20;;;15.54;51.19;99063.94;4949682;28;124079;-76
2023/01/01 06:16:28;;;;;;;6.23;3.13;;;15.10;86.20;;;15.54;51.46;99068.69;4967720;28;123753;-75
2023/01/01 06:18:54;;;;;;;5.00;3.43;;;15.00;86.10;;;15.54;51.42;99074.25;4968536;28;113762;-75
2023/01/01 06:21:24;;;;;;;5.63;3.30;;;15.10;86.20;;;15.54;51.44;99074.25;4967317;28;113851;-75
2023/01/01 06:23:51;;;;;;;5.30;3.13;;;15.10;86.20;;;15.53;51.51;99072.63;4966435;28;124440;-76
2023/01/01 06:26:20;;;;;;;5.40;3.37;;;15.00;86.10;;;15.52;51.50;99080.16;4965862;28;124580;-76
2023/01/01 06:28:48;;;;;;;4.17;2.90;;;15.10;86.30;;;15.51;51.38;99086.91;4967339;28;114669;-77
2023/01/01 06:31:17;;;;;;;5.80;3.43;;;15.00;86.10;;;15.50;51.56;99085.28;4968912;28;112833;-77
2023/01/01 06:33:45;;;;;;;6.57;2.97;;;15.10;86.20;;;15.49;51.67;99085.59;4969350;28;124102;-76
2023/01/01 06:36:14;;;;;;;5.37;3.47;;;16.50;87.70;;;15.49;51.57;99083.63;4981578;28;122980;-75
2023/01/01 06:38:44;;;;;;;5.80;3.40;;;15.00;86.20;;;15.48;51.57;99082.00;4961008;28;114369;-77
2023/01/01 06:41:16;;;;;;;3.53;2.70;;;15.00;86.20;;;15.48;51.35;99086.75;4966697;28;113775;-77
2023/01/01 06:43:43;;;;;;;6.20;3.30;;;15.10;86.30;;;15.46;51.54;99090.69;4965319;28;124160;-75
2023/01/01 06:46:19;;;;;;;5.27;2.93;;;15.00;86.20;;;15.46;51.48;99090.69;4966464;28;124216;-76
2023/01/01 06:48:49;;;;;;;7.97;2.70;;;15.00;86.20;;;15.44;51.61;99087.41;4966939;28;115154;-75
2023/01/01 06:51:19;;;;;;;5.60;3.10;;;15.00;86.30;;;15.45;51.57;99097.41;4969255;28;114841;-75
2023/01/01 06:53:47;;;;;;;6.77;3.60;;;15.00;86.30;;;15.43;51.60;99094.16;4974654;28;124702;-76
2023/01/01 06:56:16;;;;;;;6.10;3.37;;;15.00;86.30;;;15.43;51.63;99087.78;4970769;28;123632;-75
2023/01/01 06:58:42;;;;;;;4.23;2.77;;;15.00;86.30;;;15.41;51.63;99093.66;4973091;28;114251;-76
2023/01/01 07:01:22;;;;;;;3.20;2.40;;;15.00;86.30;;;15.41;51.72;99088.09;4969841;28;114019;-75
2023/01/01 07:04:00;;;;;;;4.97;2.87;;;15.30;86.60;;;15.41;51.36;99092.84;4969710;28;123908;-75
2023/01/01 07:06:30;;;;;;;3.47;2.70;;;14.90;86.30;;;15.40;51.41;99085.66;4965886;28;123796;-76
2023/01/01 07:08:56;;;;;;;3.37;2.50;;;14.90;86.20;;;15.39;51.48;99089.59;4950122;28;114543;-75
2023/01/01 07:11:24;;;;;;;4.33;2.93;;;14.90;86.20;;;15.38;51.43;99088.78;4958493;28;114138;-75
2023/01/01 07:13:50;;;;;;;5.70;3.50;;;14.90;86.20;;;15.38;51.30;99094.34;4968077;28;124057;-76
2023/01/01 07:16:17;;;;;;;4.90;3.40;;;14.90;86.20;;;15.37;51.49;99101.06;4969534;28;123723;-75
2023/01/01 07:18:44;;;;;;;4.40;2.63;;;14.90;86.30;;;15.39;51.63;99100.72;4968315;28;114355;-76
2023/01/01 07:21:32;;;;;;;4.63;3.40;;;14.90;86.20;;;15.36;51.24;99096.63;4953797;28;114426;-76
2023/01/01 07:24:02;;;;;;;4.27;2.70;;;14.90;86.20;;;15.33;51.47;99105.66;4957683;28;124008;-76
2023/01/01 07:26:30;;;;;;;3.93;2.47;;;14.90;86.20;;;15.34;51.45;99103.69;4968531;28;123939;-75
2023/01/01 07:28:57;;;;;;;3.97;2.90;;;15.10;86.40;;;15.33;51.27;99097.31;4972443;28;114405;-76
2023/01/01 07:31:24;;;;;;;3.90;3.00;;;14.80;86.10;;;15.33;51.19;99102.88;4963297;28;113930;-76
2023/01/01 07:33:50;;;;;;;5.90;3.53;;;14.80;86.10;;;15.31;51.23;99105.19;4967523;28;124541;-75
2023/01/01 07:36:17;;;;;;;3.30;2.33;;;14.80;86.00;;;15.31;51.49;99098.81;4961114;28;124170;-76
2023/01/01 07:38:44;;;;;;;3.77;2.50;;;14.80;86.10;;;15.31;51.24;99101.59;4969009;28;114937;-76
2023/01/01 07:41:10;;;;;;;5.17;3.50;;;14.80;86.00;;;15.32;51.16;99112.41;4968370;28;115145;-76
2023/01/01 07:43:37;;;;;;;4.40;2.83;;;14.80;86.00;;;15.34;51.03;99115.69;4967860;28;124282;-77
2023/01/01 07:46:04;;;;;;;3.57;2.40;;;14.80;86.00;;;15.35;51.24;99125.66;4966685;28;123717;-77
2023/01/01 07:48:30;;;;;;;3.57;2.40;;;14.90;86.00;;;15.33;51.18;99119.59;4992772;28;113329;-76
2023/01/01 07:50:57;;;;;;;11.27;3.40;;;14.80;85.80;;;15.34;51.11;99135.16;4966200;28;114303;-76
2023/01/01 07:53:23;;;;;;;3.47;2.70;;;14.80;85.80;;;15.33;51.12;99127.94;4957806;28;124054;-78
2023/01/01 07:55:50;;;;;;;4.80;3.10;;;14.80;85.70;;;15.33;51.26;99133.50;4964817;28;124023;-76
2023/01/01 07:58:16;;;;;;;4.67;2.90;;;15.00;85.90;;;15.33;50.87;99141.88;4970026;28;114499;-76
2023/01/01 08:00:47;;;;;;;7.40;2.90;;;14.90;85.70;;;15.34;50.93;99143.50;4968291;28;113840;-76
2023/01/01 08:03:14;;;;;;;6.07;2.83;;;14.90;85.60;;;15.33;50.81;99150.22;4967714;28;124204;-77
2023/01/01 08:05:41;;;;;;;7.97;2.40;;;14.90;85.50;;;15.35;50.85;99150.72;4995419;28;123867;-76
2023/01/01 08:08:09;;;;;;;2.80;2.50;;;14.90;85.50;;;15.37;50.73;99164.31;4953409;28;113175;-75
2023/01/01 08:10:36;;;;;;;4.50;2.73;;;14.90;85.40;;;15.38;50.85;99163.94;4987485;28;113372;-75
2023/01/01 08:13:06;;;;;;;5.67;2.60;;;14.90;85.40;;;15.39;50.77;99161.97;4963605;28;124101;-76
2023/01/01 08:15:33;;;;;;;4.17;2.63;;;14.90;85.30;;;15.41;50.73;99170.81;4967312;28;123905;-76
2023/01/01 08:18:03;;;;;;;4.00;3.03;;;14.90;85.30;;;15.44;50.65;99164.56;4952209;28;114272;-77
2023/01/01 08:20:31;;;;;;;4.87;2.97;;;14.90;85.30;;;15.46;50.79;99168.66;4961988;28;114089;-77
2023/01/01 08:22:57;;;;;;;4.53;2.80;;;15.00;85.30;;;15.50;50.58;99167.97;4968410;28;124053;-76
2023/01/01 08:25:24;;;;;;;2.90;2.40;;;15.00;85.30;;;15.53;50.65;99170.94;4959325;28;123791;-89
2023/01/01 08:27:50;;;;;;;6.17;3.60;;;15.00;85.30;;;15.55;50.54;99176.97;4955433;28;115157;-76
2023/01/01 08:30:17;;;;;;;7.60;2.30;;;15.00;85.20;;;15.58;50.44;99172.69;4968127;28;115071;-80
2023/01/01 08:32:44;;;;;;;3.10;2.27;;;15.10;85.30;;;15.60;51.03;99173.97;4955886;28;124447;-77
2023/01/01 08:35:10;;;;;;;4.30;3.07;;;15.20;85.80;;;15.66;51.11;99171.81;4951356;28;124161;-76
2023/01/01 08:37:36;;;;;;;3.13;2.37;;;15.10;85.80;;;15.69;50.69;99173.97;4955747;28;114249;-77
2023/01/01 08:40:04;;;;;;;2.77;2.20;;;15.20;85.80;;;15.71;50.55;99177.22;4962886;28;114245;-78
2023/01/01 08:42:30;;;;;;;4.07;2.63;;;15.20;85.50;;;15.71;50.67;99174.44;4952644;28;124571;-78
2023/01/01 08:44:57;;;;;;;3.47;2.50;;;15.20;85.40;;;15.71;50.51;99182.78;4990825;28;123942;-75
2023/01/01 08:47:25;;;;;;;5.47;3.20;;;15.20;85.20;;;15.71;50.40;99180.00;4950618;28;114536;-76
2023/01/01 08:49:52;;;;;;;3.97;2.60;;;15.20;85.20;;;15.71;50.47;99173.63;4951379;28;114586;-78
2023/01/01 08:52:19;;;;;;;3.50;2.57;;;15.20;85.10;;;15.71;50.38;99180.00;4950453;28;124380;-76
2023/01/01 08:54:46;;;;;;;3.63;2.70;;;15.20;85.10;;;15.72;50.36;99186.41;4954028;28;123829;-75
2023/01/01 08:57:12;;;;;;;3.23;2.70;;;15.20;85.10;;;15.72;50.28;99184.44;4966528;28;114129;-75
2023/01/01 08:59:39;;;;;;;4.23;2.90;;;15.60;85.40;;;15.73;50.32;99186.06;4967562;28;114060;-75
2023/01/01 09:02:06;;;;;;;4.70;2.80;;;15.20;85.00;;;15.75;50.26;99192.13;4967583;28;124128;-77
2023/01/01 09:04:32;;;;;;;3.20;2.40;;;15.20;85.00;;;15.77;50.13;99181.47;4967620;28;123637;-76
2023/01/01 09:06:59;;;;;;;4.37;2.47;;;15.30;85.00;;;15.81;49.92;99190.75;4968732;28;114203;-75
2023/01/01 09:09:25;;;;;;;2.67;2.40;;;15.30;84.90;;;15.85;50.06;99188.94;4982841;28;113038;-76
2023/01/01 09:11:56;;;;;;;3.27;2.23;;;15.30;84.80;;;15.87;49.83;99189.41;4966816;28;123422;-77
2023/01/01 09:14:22;;;;;;;5.70;2.90;;;15.40;84.70;;;15.89;49.70;99187.09;4968157;28;124260;-77
2023/01/01 09:16:49;;;;;;;4.70;2.53;;;15.50;84.70;;;15.93;49.70;99197.56;4963632;28;116057;-77
2023/01/01 09:19:15;;;;;;;2.50;2.07;;;15.40;84.50;;;15.96;49.72;99191.31;4965218;28;116587;-76
2023/01/01 09:21:42;;;;;;;4.23;3.03;;;15.40;84.40;;;15.99;49.38;99193.44;4965229;28;124099;-75
2023/01/01 09:24:08;;;;;;;3.60;2.57;;;15.40;84.20;;;16.02;49.16;99190.78;4960112;28;123938;-76
2023/01/01 09:26:35;;;;;;;3.90;2.67;;;15.40;84.00;;;16.04;48.93;99194.06;4951233;28;114085;-78
2023/01/01 09:29:01;;;;;;;7.40;2.50;;;15.50;83.80;;;16.07;48.89;99192.56;4983004;28;112383;-75
2023/01/01 09:31:27;;;;;;;7.10;2.70;;;15.50;83.80;;;16.09;49.11;99182.72;4950270;28;122955;-75
2023/01/01 09:33:54;;;;;;;3.10;2.27;;;15.60;83.90;;;16.14;48.99;99195.59;4964679;28;124973;-76
2023/01/01 09:36:20;;;;;;;52.50;16.17;;;15.70;83.90;;;16.20;48.88;99191.47;4963195;28;114496;-76
2023/01/01 09:38:51;;;;;;;27.27;10.90;;;15.60;83.90;;;16.27;48.54;99197.31;4988810;28;113763;-76
2023/01/01 09:42:04;;;;;;;19.13;6.57;;;16.20;84.00;;;16.29;48.47;99197.78;4978453;28;124078;-77
2023/01/01 09:45:08;;;;;;;50.23;16.87;;;15.80;83.30;;;16.33;48.89;99195.97;4964295;28;123486;-76
2023/01/01 09:48:01;;;;;;;50.53;16.57;;;15.80;83.60;;;16.42;49.04;99198.66;4964073;28;114733;-76
2023/01/01 09:50:39;;;;;;;17.30;7.53;;;15.90;84.00;;;16.53;48.58;99204.66;4950693;28;114014;-75
2023/01/01 09:53:31;;;;;;;15.73;6.20;;;16.00;83.50;;;16.57;48.43;99200.81;4945893;28;124162;-74
2023/01/01 09:56:01;;;;;;;7.93;3.87;;;16.00;83.20;;;16.63;47.99;99209.81;4946895;28;123075;-74
2023/01/01 09:58:37;;;;;;;9.27;4.60;;;16.20;83.20;;;16.69;47.90;99207.63;4962124;28;114204;-75
2023/01/01 10:01:56;;;;;;;7.47;3.50;;;16.10;82.90;;;16.77;47.98;99210.34;4950693;28;114056;-74
2023/01/01 10:05:02;;;;;;;9.40;3.97;;;16.20;83.00;;;16.87;47.89;99202.69;4968431;28;124437;-75
2023/01/01 10:08:24;;;;;;;7.70;3.13;;;16.30;82.90;;;16.98;47.69;99203.91;4968816;28;123283;-79
2023/01/01 10:11:38;;;;;;;5.87;3.10;;;16.40;82.60;;;17.03;47.19;99205.63;4892773;28;115044;-75
2023/01/01 10:14:24;;;;;;;5.50;3.63;;;16.50;82.30;;;17.09;47.11;99207.06;4968909;28;115109;-76
2023/01/01 10:16:54;;;;;;;4.50;3.10;;;16.50;82.20;;;17.13;47.03;99194.03;4995393;28;123885;-75
2023/01/01 10:19:35;;;;;;;4.30;2.77;;;16.60;82.00;;;17.18;46.84;99194.63;4968244;28;123809;-76
2023/01/01 10:22:39;;;;;;;4.40;2.80;;;16.60;81.80;;;17.21;46.69;99191.13;4964866;28;114269;-75
2023/01/01 10:25:29;;;;;;;5.07;2.60;;;16.70;81.50;;;17.27;46.56;99190.91;4971484;28;113894;-73
2023/01/01 10:28:03;;;;;;;2.80;2.17;;;16.80;81.40;;;17.31;46.33;99192.66;4970828;28;124171;-73
2023/01/01 10:30:30;;;;;;;3.70;2.63;;;16.70;81.10;;;17.38;46.41;99189.28;4970073;28;123900;-73
2023/01/01 10:32:57;;;;;;;4.20;2.90;;;16.80;81.20;;;17.46;46.22;99179.97;4970576;28;114361;-73
2023/01/01 10:35:50;;;;;;;5.10;2.87;;;16.90;81.30;;;17.54;46.33;99190.22;5002893;28;114290;-74
2023/01/01 10:38:23;;;;;;;3.67;2.67;;;17.00;81.00;;;17.62;45.85;99189.31;4965392;28;124023;-73